This is the latest recevied weather packets stored in our database for station/object SV2BZQ-2. If no packets are shown the sender has not sent any weather packets the latest 10 day(s).
| Time | Temp. | Humidity | Pressure | Rain* | Wind** | Luminosity | Snow |
|---|---|---|---|---|---|---|---|
| 1778417101 | 27.22° C | 60% | 1012 hPa | 0 mm | - | 227 W/m² | - |
| 1778417004 | 27.22° C | 60% | 1012 hPa | 0 mm | - | 211 W/m² | - |
| 1778416917 | 27.22° C | 59% | 1012 hPa | 0 mm | - | 199 W/m² | - |
| 1778416826 | 27.22° C | 59% | 1012.1 hPa | 0 mm | - | 188 W/m² | - |
| 1778416711 | 27.78° C | 58% | 1012.1 hPa | 0 mm | - | 183 W/m² | - |
| 1778416623 | 27.78° C | 58% | 1012.1 hPa | 0 mm | - | 185 W/m² | - |
| 1778416481 | 27.78° C | 58% | 1012.1 hPa | 0 mm | - | 188 W/m² | - |
| 1778416396 | 27.78° C | 59% | 1012.2 hPa | 0 mm | - | 197 W/m² | - |
| 1778416168 | 27.78° C | 58% | 1012.2 hPa | 0 mm | - | 218 W/m² | - |
| 1778416061 | 27.78° C | 58% | 1012.4 hPa | 0 mm | - | 232 W/m² | - |
| 1778415954 | 27.78° C | 58% | 1012.4 hPa | 0 mm | - | 248 W/m² | - |
| 1778415674 | 27.78° C | 58% | 1012.5 hPa | 0 mm | - | 269 W/m² | - |
| 1778415552 | 27.78° C | 58% | 1012.5 hPa | 0 mm | - | 283 W/m² | - |
| 1778415508 | 20.56° C | 85% | 1013.2 hPa | 0 mm | - | 0 W/m² | - |
| 1778415443 | 27.78° C | 57% | 1012.5 hPa | 0 mm | - | 309 W/m² | - |
| 1778415331 | 27.78° C | 57% | 1012.6 hPa | 0 mm | - | 320 W/m² | - |
| 1778415257 | 27.78° C | 56% | 1012.5 hPa | 0 mm | - | 309 W/m² | - |
| 1778415137 | 27.78° C | 54% | 1012.5 hPa | 0 mm | - | 320 W/m² | - |
| 1778415026 | 27.78° C | 53% | 1012.5 hPa | 0 mm | - | 306 W/m² | - |
| 1778414915 | 27.78° C | 53% | 1012.6 hPa | 0 mm | - | 294 W/m² | - |
| 1778414802 | 27.78° C | 53% | 1012.6 hPa | 0 mm | - | 301 W/m² | - |
| 1778414725 | 27.78° C | 53% | 1012.6 hPa | 0 mm | - | 316 W/m² | - |
| 1778414568 | 27.78° C | 53% | 1012.7 hPa | 0 mm | - | 366 W/m² | - |
| 1778414460 | 27.78° C | 53% | 1012.7 hPa | 0 mm | - | 339 W/m² | - |
| 1778414227 | 27.22° C | 53% | 1012.7 hPa | 0 mm | - | 673 W/m² | - |
* Rain latest hour (hover to see other rain measurements)
** Current wind speed in m/s (hover to see current wind gust speed)